Time;durP1;ratioP1;P1;durP2;ratioP2;P2;SDS_P1;SDS_P2;PMS_P1;PMS_P2;Temp;Humidity;BMP_temperature;BMP_pressure;BME280_temperature;BME280_humidity;BME280_pressure;Samples;Min_cycle;Max_cycle;Signal;HPM_P1;HPM_P2
2023/07/03 00:00:20;;;;;;;20.43;9.40;;;16.00;99.90;;;;;;4186331;28;20654;-78
2023/07/03 00:02:23;;;;;;;21.37;9.27;;;16.00;99.90;;;;;;4190256;28;20316;-77
2023/07/03 00:04:26;;;;;;;17.67;9.13;;;15.90;99.90;;;;;;4187663;28;20221;-77
2023/07/03 00:06:29;;;;;;;17.43;9.07;;;15.90;99.90;;;;;;4184629;28;20218;-77
2023/07/03 00:08:31;;;;;;;16.63;8.97;;;15.90;99.90;;;;;;4188667;28;20623;-77
2023/07/03 00:10:33;;;;;;;18.67;9.33;;;15.90;99.90;;;;;;4189053;28;20309;-77
2023/07/03 00:12:35;;;;;;;19.57;8.83;;;15.90;99.90;;;;;;4189325;28;20260;-78
2023/07/03 00:14:37;;;;;;;17.80;9.07;;;15.80;99.90;;;;;;4190769;28;20209;-77
2023/07/03 00:16:39;;;;;;;20.07;9.17;;;15.80;99.90;;;;;;4191818;28;20652;-77
2023/07/03 00:18:41;;;;;;;18.63;9.73;;;15.80;99.90;;;;;;4195778;28;20244;-77
2023/07/03 00:20:46;;;;;;;19.40;10.47;;;15.80;99.90;;;;;;4195181;28;20682;-77
2023/07/03 00:22:48;;;;;;;17.70;9.57;;;15.90;99.90;;;;;;4192748;28;20229;-77
2023/07/03 00:24:50;;;;;;;21.37;10.00;;;15.80;99.90;;;;;;4193184;28;20270;-77
2023/07/03 00:26:52;;;;;;;17.53;9.60;;;15.80;99.90;;;;;;4193477;28;20214;-77
2023/07/03 00:28:54;;;;;;;20.10;9.47;;;15.80;99.90;;;;;;4191388;28;20242;-77
2023/07/03 00:30:56;;;;;;;18.83;9.70;;;15.80;99.90;;;;;;4190220;28;20242;-77
2023/07/03 00:32:58;;;;;;;17.83;9.17;;;15.80;99.90;;;;;;4198082;28;20246;-78
2023/07/03 00:35:00;;;;;;;19.23;9.53;;;15.70;99.90;;;;;;4193959;28;20721;-77
2023/07/03 00:37:03;;;;;;;19.83;9.33;;;15.70;99.90;;;;;;4195017;28;20206;-78
2023/07/03 00:39:05;;;;;;;17.53;9.20;;;15.80;99.90;;;;;;4197697;28;20205;-78
2023/07/03 00:41:07;;;;;;;21.03;9.53;;;15.70;99.90;;;;;;4186841;28;20751;-78
2023/07/03 00:43:09;;;;;;;18.87;9.30;;;15.70;99.90;;;;;;4191649;28;20650;-78
2023/07/03 00:45:11;;;;;;;21.90;9.83;;;15.80;99.90;;;;;;4188562;28;20261;-78
2023/07/03 00:47:13;;;;;;;23.53;9.83;;;15.80;99.90;;;;;;4180962;28;20248;-77
2023/07/03 00:49:16;;;;;;;21.30;10.23;;;15.80;99.90;;;;;;4190777;28;20297;-78
2023/07/03 00:51:19;;;;;;;19.83;9.33;;;15.80;99.90;;;;;;4185479;28;20244;-77
2023/07/03 00:53:22;;;;;;;18.20;9.23;;;15.90;99.90;;;;;;4189917;28;20225;-79
2023/07/03 00:55:24;;;;;;;21.50;9.87;;;15.90;99.90;;;;;;4191797;28;20289;-78
2023/07/03 00:57:26;;;;;;;16.03;9.57;;;15.80;99.90;;;;;;4181490;28;20297;-78
2023/07/03 00:59:28;;;;;;;21.03;10.13;;;15.80;99.90;;;;;;4193478;28;20209;-77
2023/07/03 01:01:36;;;;;;;19.73;9.60;;;15.80;99.90;;;;;;4188604;28;20300;-78
2023/07/03 01:03:42;;;;;;;18.47;8.97;;;15.80;99.90;;;;;;4188553;28;20253;-78
2023/07/03 01:05:49;;;;;;;18.77;10.03;;;15.80;99.90;;;;;;4191289;28;20637;-78
2023/07/03 01:07:53;;;;;;;19.47;10.23;;;15.80;99.90;;;;;;4189715;28;20202;-78
2023/07/03 01:10:01;;;;;;;22.93;9.93;;;15.80;99.90;;;;;;4200513;28;20210;-78
2023/07/03 01:12:05;;;;;;;18.63;9.33;;;15.80;99.90;;;;;;4198486;28;20252;-78
2023/07/03 01:14:09;;;;;;;17.00;9.07;;;15.80;99.90;;;;;;4197706;28;20236;-77
2023/07/03 01:16:12;;;;;;;20.67;9.27;;;15.80;99.90;;;;;;4208426;22;20337;-75
2023/07/03 01:18:15;;;;;;;20.77;9.73;;;15.80;99.90;;;;;;4175551;28;20584;-75
2023/07/03 01:20:20;;;;;;;20.77;9.57;;;15.80;99.90;;;;;;4175846;28;20203;-75
2023/07/03 01:22:25;;;;;;;16.23;9.40;;;15.80;99.90;;;;;;4174307;28;20219;-75
2023/07/03 01:24:34;;;;;;;21.23;9.60;;;15.80;99.90;;;;;;4178142;28;20305;-75
2023/07/03 01:26:37;;;;;;;21.63;10.30;;;15.90;99.90;;;;;;4161570;28;20233;-75
2023/07/03 01:28:40;;;;;;;20.37;9.70;;;15.80;99.90;;;;;;4156116;28;20298;-75
2023/07/03 01:30:43;;;;;;;23.17;10.77;;;15.90;99.90;;;;;;4152463;28;20221;-75
2023/07/03 01:32:52;;;;;;;19.80;10.43;;;15.90;99.90;;;;;;4152620;28;20207;-75
2023/07/03 01:34:55;;;;;;;20.10;9.40;;;15.90;99.90;;;;;;4153573;28;20254;-76
2023/07/03 01:36:59;;;;;;;21.33;10.40;;;15.90;99.90;;;;;;4151733;28;20254;-75
2023/07/03 01:39:03;;;;;;;18.73;9.63;;;15.90;99.90;;;;;;4151387;28;20303;-75
2023/07/03 01:41:06;;;;;;;20.50;9.60;;;15.90;99.90;;;;;;4150762;28;20655;-75
2023/07/03 01:43:10;;;;;;;19.40;9.87;;;15.80;99.90;;;;;;4150643;28;20688;-75
2023/07/03 01:45:13;;;;;;;21.57;10.10;;;15.80;99.90;;;;;;4149811;28;20220;-75
2023/07/03 01:47:16;;;;;;;19.27;9.17;;;15.90;99.90;;;;;;4153646;28;20288;-75
2023/07/03 01:49:18;;;;;;;20.10;9.50;;;15.80;99.90;;;;;;4154372;28;20228;-75
2023/07/03 01:51:26;;;;;;;23.23;9.50;;;15.80;99.90;;;;;;4154751;28;20211;-75
2023/07/03 01:53:31;;;;;;;18.43;9.70;;;15.90;99.90;;;;;;4155849;28;20294;-75
2023/07/03 01:55:41;;;;;;;18.73;9.63;;;15.90;99.90;;;;;;4152526;28;20254;-75
2023/07/03 01:57:52;;;;;;;19.40;9.63;;;15.90;99.90;;;;;;4153053;28;20223;-75
2023/07/03 01:59:54;;;;;;;17.57;9.00;;;15.90;99.90;;;;;;4152881;28;20273;-75
2023/07/03 02:02:01;;;;;;;20.70;9.50;;;15.90;99.90;;;;;;4154762;28;20298;-75
2023/07/03 02:04:06;;;;;;;22.17;10.20;;;15.90;99.90;;;;;;4151462;28;20227;-75
2023/07/03 02:06:13;;;;;;;20.27;9.70;;;15.90;99.90;;;;;;4153673;28;20232;-75
2023/07/03 02:08:17;;;;;;;19.47;9.87;;;15.90;99.90;;;;;;4153992;28;20208;-75
2023/07/03 02:10:20;;;;;;;19.37;9.30;;;15.90;99.90;;;;;;4152596;28;20668;-75
2023/07/03 02:12:21;;;;;;;17.07;9.30;;;15.90;99.90;;;;;;4153120;28;20303;-75
2023/07/03 02:14:25;;;;;;;18.90;9.30;;;15.90;99.90;;;;;;4161484;28;20210;-74
2023/07/03 02:16:29;;;;;;;19.00;9.47;;;15.90;99.90;;;;;;4161725;28;20241;-74
2023/07/03 02:18:31;;;;;;;20.57;10.07;;;15.90;99.90;;;;;;4164135;28;20299;-74
2023/07/03 02:20:33;;;;;;;21.30;11.60;;;15.90;99.90;;;;;;4165954;28;20290;-74
2023/07/03 02:22:34;;;;;;;22.40;10.80;;;16.00;99.90;;;;;;4161916;28;20301;-74
2023/07/03 02:24:36;;;;;;;21.63;10.73;;;16.00;99.90;;;;;;4170146;28;20226;-74
2023/07/03 02:26:38;;;;;;;18.13;9.33;;;16.00;99.90;;;;;;4160586;28;20650;-74
2023/07/03 02:28:40;;;;;;;18.67;9.67;;;16.00;99.90;;;;;;4164162;28;20302;-74
2023/07/03 02:30:43;;;;;;;19.17;9.50;;;16.00;99.90;;;;;;4159849;28;20208;-74
2023/07/03 02:32:45;;;;;;;22.37;9.73;;;16.00;99.90;;;;;;4156279;28;20216;-74
2023/07/03 02:34:47;;;;;;;19.57;9.40;;;16.00;99.90;;;;;;4157497;28;20218;-74
2023/07/03 02:36:49;;;;;;;21.83;9.77;;;16.00;99.90;;;;;;4157959;28;20948;-74
2023/07/03 02:38:51;;;;;;;22.00;10.37;;;16.00;99.90;;;;;;4163315;28;20211;-74
2023/07/03 02:40:53;;;;;;;20.83;10.07;;;16.00;99.90;;;;;;4161646;28;20230;-74
2023/07/03 02:42:55;;;;;;;20.77;10.23;;;16.00;99.90;;;;;;4164406;28;20225;-74
2023/07/03 02:44:57;;;;;;;22.33;9.73;;;16.00;99.90;;;;;;4160943;28;20302;-74
2023/07/03 02:47:00;;;;;;;21.33;9.47;;;16.00;99.90;;;;;;4159976;28;20262;-74
2023/07/03 02:49:03;;;;;;;20.50;9.40;;;16.00;99.90;;;;;;4160074;28;20266;-74
2023/07/03 02:51:05;;;;;;;19.30;9.57;;;16.00;99.90;;;;;;4155157;28;20633;-75
2023/07/03 02:53:08;;;;;;;21.40;10.20;;;16.00;99.90;;;;;;4157261;28;20195;-75
2023/07/03 02:55:10;;;;;;;19.03;9.10;;;16.00;99.90;;;;;;4159225;28;20219;-75
2023/07/03 02:57:12;;;;;;;21.93;9.97;;;16.00;99.90;;;;;;4157880;28;20223;-75
2023/07/03 02:59:14;;;;;;;19.77;9.27;;;16.00;99.90;;;;;;4157597;28;20215;-75
2023/07/03 03:01:16;;;;;;;19.60;9.90;;;16.00;99.90;;;;;;4154893;28;20245;-75
2023/07/03 03:03:19;;;;;;;21.30;10.20;;;16.00;99.90;;;;;;4158061;28;20208;-75
2023/07/03 03:05:21;;;;;;;17.77;8.93;;;16.10;99.90;;;;;;4158904;28;20329;-75
2023/07/03 03:07:23;;;;;;;20.23;9.63;;;16.00;99.90;;;;;;4160367;28;20737;-75
2023/07/03 03:09:25;;;;;;;21.67;9.60;;;16.10;99.90;;;;;;4162413;28;20598;-75
2023/07/03 03:11:27;;;;;;;19.77;10.13;;;16.10;99.90;;;;;;4156267;28;21021;-75
2023/07/03 03:13:29;;;;;;;18.47;9.53;;;16.10;99.90;;;;;;4161995;28;20220;-75
2023/07/03 03:15:34;;;;;;;20.73;9.17;;;16.00;99.90;;;;;;4161244;28;20298;-75
2023/07/03 03:17:36;;;;;;;20.40;9.93;;;16.10;99.90;;;;;;4156368;28;20224;-76
2023/07/03 03:19:39;;;;;;;19.20;9.43;;;16.10;99.90;;;;;;4157681;28;20212;-75
2023/07/03 03:21:41;;;;;;;18.37;9.37;;;16.10;99.90;;;;;;4158226;28;20207;-75
2023/07/03 03:23:43;;;;;;;22.77;9.33;;;16.10;99.90;;;;;;4156309;28;20214;-76
2023/07/03 03:25:46;;;;;;;17.23;9.03;;;16.10;99.90;;;;;;4152652;28;20329;-75
2023/07/03 03:27:47;;;;;;;20.97;9.47;;;16.10;99.90;;;;;;4152870;28;20222;-75
2023/07/03 03:29:50;;;;;;;22.50;9.70;;;16.10;99.90;;;;;;4156497;28;20222;-75
2023/07/03 03:31:52;;;;;;;19.93;9.87;;;16.10;99.90;;;;;;4155432;28;20214;-76
2023/07/03 03:33:54;;;;;;;23.63;9.10;;;16.10;99.90;;;;;;4153591;28;20216;-75
2023/07/03 03:35:57;;;;;;;18.70;9.87;;;16.10;99.90;;;;;;4155339;28;20655;-75
2023/07/03 03:38:02;;;;;;;17.27;9.27;;;16.10;99.90;;;;;;4154395;28;20222;-75
2023/07/03 03:40:07;;;;;;;19.20;9.67;;;16.10;99.90;;;;;;4153145;28;20302;-75
2023/07/03 03:42:10;;;;;;;21.07;8.80;;;16.10;99.90;;;;;;4153437;28;20215;-75
2023/07/03 03:44:12;;;;;;;18.77;8.93;;;16.10;99.90;;;;;;4154056;28;20238;-75
2023/07/03 03:46:14;;;;;;;21.63;9.53;;;16.10;99.90;;;;;;4150429;28;20881;-75
2023/07/03 03:48:15;;;;;;;18.93;9.13;;;16.10;99.90;;;;;;4158668;28;20212;-75
2023/07/03 03:50:20;;;;;;;18.97;9.73;;;16.10;99.90;;;;;;4156304;28;20232;-77
2023/07/03 03:52:24;;;;;;;20.43;9.27;;;16.20;99.90;;;;;;4163196;28;20297;-75
2023/07/03 03:54:26;;;;;;;25.37;9.70;;;16.10;99.90;;;;;;4159735;28;20238;-76
2023/07/03 03:56:31;;;;;;;20.70;10.50;;;16.20;99.90;;;;;;4154444;28;20223;-74
2023/07/03 03:58:32;;;;;;;20.80;10.20;;;16.20;99.90;;;;;;4159749;28;20221;-74
2023/07/03 04:00:35;;;;;;;21.17;10.43;;;16.20;99.90;;;;;;4159929;28;20290;-74
2023/07/03 04:02:36;;;;;;;21.80;10.27;;;16.30;99.90;;;;;;4157657;28;20723;-75
2023/07/03 04:04:38;;;;;;;20.50;9.63;;;16.30;99.90;;;;;;4156408;28;20212;-75
2023/07/03 04:06:40;;;;;;;21.80;9.77;;;16.30;99.90;;;;;;4155182;28;20230;-73
2023/07/03 04:08:44;;;;;;;20.93;9.70;;;16.40;99.90;;;;;;4155828;28;20208;-74
2023/07/03 04:10:46;;;;;;;18.87;9.57;;;16.40;99.90;;;;;;4157253;28;20679;-75
2023/07/03 04:12:47;;;;;;;19.60;9.37;;;16.40;99.90;;;;;;4154779;28;20214;-73
2023/07/03 04:14:49;;;;;;;19.23;9.70;;;16.40;99.90;;;;;;4156041;28;21018;-73
2023/07/03 04:16:51;;;;;;;19.60;9.27;;;16.50;99.90;;;;;;4157127;28;20234;-73
2023/07/03 04:18:55;;;;;;;23.77;9.67;;;16.50;99.90;;;;;;4157549;28;21058;-74
2023/07/03 04:20:57;;;;;;;21.47;10.00;;;16.60;99.90;;;;;;4158276;28;20591;-74
2023/07/03 04:22:59;;;;;;;20.97;9.47;;;16.60;99.90;;;;;;4153292;28;20239;-74
2023/07/03 04:25:03;;;;;;;24.70;9.63;;;16.60;99.90;;;;;;4152524;28;20199;-74
2023/07/03 04:27:05;;;;;;;23.37;9.23;;;16.70;99.90;;;;;;4156693;28;20277;-73
2023/07/03 04:29:07;;;;;;;23.23;10.37;;;16.70;99.90;;;;;;4153269;28;20208;-73
2023/07/03 04:31:09;;;;;;;18.90;9.63;;;16.70;99.90;;;;;;4153465;28;20238;-76
2023/07/03 04:33:11;;;;;;;23.47;10.37;;;16.60;99.90;;;;;;4153625;28;20218;-76
2023/07/03 04:35:13;;;;;;;21.43;9.93;;;16.60;99.90;;;;;;4151185;28;20202;-75
2023/07/03 04:37:14;;;;;;;23.37;9.97;;;16.60;99.90;;;;;;4152488;28;20319;-74
2023/07/03 04:39:16;;;;;;;18.13;9.03;;;16.60;99.90;;;;;;4153723;28;20258;-74
2023/07/03 04:41:22;;;;;;;19.77;9.07;;;16.60;99.90;;;;;;4153281;28;20215;-76
2023/07/03 04:43:24;;;;;;;22.33;10.00;;;16.50;99.90;;;;;;4153664;28;20211;-75
2023/07/03 04:45:26;;;;;;;21.90;9.97;;;16.50;99.90;;;;;;4152946;28;20768;-74
2023/07/03 04:47:28;;;;;;;21.83;9.77;;;16.50;99.90;;;;;;4154749;28;20259;-75
2023/07/03 04:49:30;;;;;;;27.23;9.90;;;16.50;99.90;;;;;;4155292;28;20602;-74
2023/07/03 04:51:32;;;;;;;20.97;9.00;;;16.50;99.90;;;;;;4158754;28;20294;-76
2023/07/03 04:53:41;;;;;;;22.67;9.77;;;16.50;99.90;;;;;;4152818;28;20204;-74
2023/07/03 04:55:43;;;;;;;19.97;8.90;;;16.60;99.90;;;;;;4155897;28;20305;-75
2023/07/03 04:57:47;;;;;;;21.17;10.00;;;16.60;99.90;;;;;;4155121;28;20199;-76
2023/07/03 04:59:49;;;;;;;23.87;9.83;;;16.60;99.90;;;;;;4152643;28;20212;-75
2023/07/03 05:01:51;;;;;;;22.70;10.00;;;16.70;99.90;;;;;;4154276;28;20274;-74
2023/07/03 05:03:56;;;;;;;24.43;9.37;;;16.70;99.90;;;;;;4152660;28;20303;-77
2023/07/03 05:05:58;;;;;;;26.77;9.70;;;16.80;99.90;;;;;;4154234;28;20767;-76
2023/07/03 05:08:00;;;;;;;18.67;9.57;;;16.90;99.90;;;;;;4157512;28;20232;-74
2023/07/03 05:10:02;;;;;;;20.27;9.60;;;16.90;99.90;;;;;;4161020;28;20682;-77
2023/07/03 05:12:04;;;;;;;21.03;9.00;;;16.90;99.90;;;;;;4155284;28;20553;-76
2023/07/03 05:14:07;;;;;;;20.87;9.20;;;17.00;99.90;;;;;;4156524;28;20203;-76
2023/07/03 05:16:09;;;;;;;20.93;9.37;;;17.00;99.90;;;;;;4156233;28;20223;-75
2023/07/03 05:18:11;;;;;;;22.57;9.37;;;17.00;99.90;;;;;;4155259;28;20311;-75
2023/07/03 05:20:17;;;;;;;20.33;9.17;;;17.10;99.90;;;;;;4155333;28;20207;-77
2023/07/03 05:22:19;;;;;;;22.80;8.97;;;17.10;99.90;;;;;;4154432;28;20298;-76
2023/07/03 05:24:21;;;;;;;22.80;9.27;;;17.10;99.90;;;;;;4152795;28;20211;-76
2023/07/03 05:26:24;;;;;;;24.47;9.00;;;17.10;99.90;;;;;;4155313;28;20601;-77
2023/07/03 05:28:26;;;;;;;22.90;8.80;;;17.10;99.90;;;;;;4153580;28;20651;-76
2023/07/03 05:30:29;;;;;;;21.57;8.63;;;17.20;99.90;;;;;;4156561;28;20224;-76
2023/07/03 05:32:31;;;;;;;23.00;9.40;;;17.30;99.90;;;;;;4154735;28;20704;-76
2023/07/03 05:34:34;;;;;;;23.53;9.33;;;17.30;99.90;;;;;;4149887;28;20301;-76
2023/07/03 05:36:36;;;;;;;21.20;7.70;;;17.40;99.90;;;;;;4153937;28;20230;-75
2023/07/03 05:38:37;;;;;;;20.97;7.87;;;17.40;99.90;;;;;;4153157;28;20237;-75
2023/07/03 05:40:39;;;;;;;21.77;8.50;;;17.50;99.90;;;;;;4152225;28;20238;-76
2023/07/03 05:42:41;;;;;;;19.63;7.47;;;17.40;99.90;;;;;;4152386;28;20478;-76
2023/07/03 05:44:44;;;;;;;15.67;6.37;;;17.40;99.90;;;;;;4151759;28;20215;-76
2023/07/03 05:46:47;;;;;;;17.60;6.97;;;17.40;99.90;;;;;;4152503;28;20250;-75
2023/07/03 05:48:50;;;;;;;18.33;7.13;;;17.30;99.90;;;;;;4155963;28;20656;-76
2023/07/03 05:50:52;;;;;;;15.03;6.43;;;17.30;99.90;;;;;;4157665;28;20306;-75
2023/07/03 05:52:54;;;;;;;17.53;6.80;;;17.30;99.90;;;;;;4156588;28;20235;-77
2023/07/03 05:54:56;;;;;;;14.77;5.93;;;17.30;99.90;;;;;;4154959;28;20220;-76
2023/07/03 05:56:58;;;;;;;14.30;5.80;;;17.30;99.90;;;;;;4153338;28;20315;-76
2023/07/03 05:59:00;;;;;;;14.60;5.60;;;17.30;99.90;;;;;;4155575;28;20729;-76
2023/07/03 06:01:03;;;;;;;17.13;5.70;;;17.30;99.90;;;;;;4160891;28;20298;-76
2023/07/03 06:03:06;;;;;;;19.77;6.03;;;17.30;99.90;;;;;;4157537;28;20239;-77
2023/07/03 06:05:09;;;;;;;21.90;5.73;;;17.30;99.90;;;;;;4156444;28;20303;-76
2023/07/03 06:07:11;;;;;;;15.27;5.30;;;17.30;99.90;;;;;;4158559;28;20235;-76
2023/07/03 06:09:13;;;;;;;19.30;5.77;;;17.30;99.90;;;;;;4155186;28;20292;-77
2023/07/03 06:11:15;;;;;;;15.03;5.60;;;17.40;99.90;;;;;;4156961;28;20221;-75
2023/07/03 06:13:17;;;;;;;18.60;5.40;;;17.40;99.90;;;;;;4150115;28;20208;-76
2023/07/03 06:15:19;;;;;;;12.73;5.17;;;17.50;99.90;;;;;;4152863;28;20238;-76
2023/07/03 06:17:21;;;;;;;16.20;4.87;;;17.50;99.90;;;;;;4155498;28;20776;-76
2023/07/03 06:19:26;;;;;;;15.10;5.50;;;17.60;99.90;;;;;;4159028;28;20264;-77
2023/07/03 06:21:27;;;;;;;14.90;4.97;;;17.60;99.90;;;;;;4156197;28;20569;-77
2023/07/03 06:23:29;;;;;;;17.53;5.00;;;17.70;99.90;;;;;;4155782;28;20224;-76
2023/07/03 06:25:31;;;;;;;13.77;4.97;;;17.80;99.90;;;;;;4153018;28;20270;-76
2023/07/03 06:27:33;;;;;;;16.23;4.63;;;17.90;99.90;;;;;;4153964;28;20259;-75
2023/07/03 06:29:35;;;;;;;12.53;4.90;;;18.00;99.90;;;;;;4152774;28;20781;-75
2023/07/03 06:31:37;;;;;;;18.33;4.90;;;18.00;99.90;;;;;;4151185;28;20227;-76
2023/07/03 06:33:39;;;;;;;15.33;4.63;;;18.20;99.90;;;;;;4154842;28;20238;-78
2023/07/03 06:35:43;;;;;;;12.60;4.27;;;18.20;99.90;;;;;;4156589;28;20214;-76
2023/07/03 06:37:44;;;;;;;15.80;5.00;;;18.30;99.90;;;;;;4152516;28;20248;-76
2023/07/03 06:39:46;;;;;;;18.47;5.47;;;18.30;99.90;;;;;;4157137;28;20227;-77
2023/07/03 06:41:48;;;;;;;16.60;4.90;;;18.40;99.90;;;;;;4157189;28;20611;-77
2023/07/03 06:43:50;;;;;;;17.97;5.23;;;18.50;99.90;;;;;;4155485;28;20619;-76
2023/07/03 06:45:52;;;;;;;12.60;4.70;;;18.50;99.90;;;;;;4158265;28;20232;-77
2023/07/03 06:47:54;;;;;;;17.10;4.63;;;18.50;99.90;;;;;;4154055;28;20207;-77
2023/07/03 06:49:56;;;;;;;18.13;4.83;;;18.50;99.90;;;;;;4155791;28;20220;-78
2023/07/03 06:51:59;;;;;;;14.10;4.10;;;18.50;99.90;;;;;;4157710;28;20233;-75
2023/07/03 06:54:01;;;;;;;13.93;3.93;;;18.60;99.90;;;;;;4152784;28;20611;-75
2023/07/03 06:56:04;;;;;;;15.43;3.43;;;18.60;99.90;;;;;;4157002;28;20218;-75
2023/07/03 06:58:06;;;;;;;16.10;3.37;;;18.50;99.90;;;;;;4156087;28;20297;-75
2023/07/03 07:00:09;;;;;;;16.13;3.80;;;18.40;99.90;;;;;;4159162;28;20874;-75
2023/07/03 07:02:11;;;;;;;15.23;3.27;;;18.40;99.90;;;;;;4157057;28;20245;-75
2023/07/03 07:04:13;;;;;;;11.97;3.03;;;18.30;99.90;;;;;;4155966;28;20217;-75
2023/07/03 07:06:17;;;;;;;18.07;3.63;;;18.20;99.90;;;;;;4155985;28;20876;-76
2023/07/03 07:08:20;;;;;;;14.07;2.77;;;18.20;99.90;;;;;;4154025;28;20217;-76
2023/07/03 07:10:24;;;;;;;17.73;3.10;;;18.20;99.90;;;;;;4153008;28;20248;-75
2023/07/03 07:12:26;;;;;;;9.80;3.20;;;18.20;99.90;;;;;;4155374;28;20237;-75
2023/07/03 07:14:27;;;;;;;11.77;2.80;;;18.20;99.90;;;;;;4153295;28;20311;-76
2023/07/03 07:16:33;;;;;;;9.60;3.40;;;18.10;99.90;;;;;;4154475;28;20237;-75
2023/07/03 07:18:35;;;;;;;14.13;3.10;;;18.20;99.90;;;;;;4155562;28;20213;-76
2023/07/03 07:20:38;;;;;;;16.77;2.90;;;18.20;99.90;;;;;;4155354;28;20713;-76
2023/07/03 07:22:39;;;;;;;14.37;3.87;;;18.30;99.90;;;;;;4154407;28;20213;-76
2023/07/03 07:24:43;;;;;;;13.57;3.50;;;18.30;99.90;;;;;;4156478;28;20231;-76
2023/07/03 07:26:45;;;;;;;10.20;3.20;;;18.30;99.90;;;;;;4156265;28;20237;-75
2023/07/03 07:28:47;;;;;;;13.27;3.13;;;18.40;99.90;;;;;;4155395;28;20218;-76
2023/07/03 07:30:49;;;;;;;12.23;3.63;;;18.30;99.90;;;;;;4158929;28;20216;-75
2023/07/03 07:32:51;;;;;;;10.43;3.47;;;18.30;99.90;;;;;;4155525;28;21673;-75
2023/07/03 07:34:53;;;;;;;14.27;3.20;;;18.30;99.90;;;;;;4156339;28;20230;-75
2023/07/03 07:36:55;;;;;;;12.47;3.30;;;18.30;99.90;;;;;;4155225;28;20226;-75
2023/07/03 07:38:59;;;;;;;13.67;4.00;;;18.30;99.90;;;;;;4157737;28;20220;-75
2023/07/03 07:41:03;;;;;;;13.37;3.60;;;18.30;99.90;;;;;;4157977;28;20225;-75
2023/07/03 07:43:05;;;;;;;16.03;3.87;;;18.40;99.90;;;;;;4153624;28;20221;-75
2023/07/03 07:45:08;;;;;;;13.50;4.03;;;18.40;99.90;;;;;;4153209;28;20242;-75
2023/07/03 07:47:10;;;;;;;11.60;3.63;;;18.40;99.90;;;;;;4157031;28;20247;-76
2023/07/03 07:49:12;;;;;;;11.87;3.40;;;18.40;99.90;;;;;;4154579;28;20210;-76
2023/07/03 07:51:14;;;;;;;13.80;3.77;;;18.40;99.90;;;;;;4154915;28;20234;-74
2023/07/03 07:53:16;;;;;;;12.00;3.60;;;18.40;99.90;;;;;;4153596;28;20236;-76
2023/07/03 07:55:18;;;;;;;13.07;3.87;;;18.40;99.90;;;;;;4155855;28;20215;-75
2023/07/03 07:57:21;;;;;;;18.20;3.70;;;18.40;99.90;;;;;;4153104;28;20609;-75
2023/07/03 07:59:23;;;;;;;14.83;3.40;;;18.40;99.90;;;;;;4154778;28;20587;-75
2023/07/03 08:01:25;;;;;;;13.67;3.60;;;18.40;99.90;;;;;;4154100;28;20217;-75
2023/07/03 08:03:28;;;;;;;16.10;3.50;;;18.40;99.90;;;;;;4155234;28;20215;-75
2023/07/03 08:05:31;;;;;;;12.73;3.67;;;18.40;99.90;;;;;;4153751;28;20221;-75
2023/07/03 08:07:32;;;;;;;14.73;3.80;;;18.40;99.90;;;;;;4155391;28;20225;-75
2023/07/03 08:09:34;;;;;;;14.10;4.03;;;18.50;99.90;;;;;;4154448;28;20305;-75
2023/07/03 08:11:37;;;;;;;9.67;3.60;;;18.50;99.90;;;;;;4155619;28;20210;-75
2023/07/03 08:13:42;;;;;;;9.33;3.23;;;18.40;99.90;;;;;;4154462;28;20206;-75
2023/07/03 08:15:45;;;;;;;12.83;3.40;;;18.50;99.90;;;;;;4155458;28;20249;-75
2023/07/03 08:17:47;;;;;;;10.30;3.80;;;18.50;99.90;;;;;;4155972;28;20249;-75
2023/07/03 08:19:49;;;;;;;9.57;3.50;;;18.60;99.90;;;;;;4152128;28;20561;-75
2023/07/03 08:21:51;;;;;;;11.53;3.73;;;18.60;99.90;;;;;;4154605;28;20217;-75
2023/07/03 08:23:53;;;;;;;12.27;3.93;;;18.70;99.90;;;;;;4156978;28;20309;-75
2023/07/03 08:25:56;;;;;;;14.40;3.30;;;18.70;99.90;;;;;;4155933;28;20871;-75
2023/07/03 08:27:57;;;;;;;9.10;3.10;;;18.70;99.90;;;;;;4156523;28;20682;-75
2023/07/03 08:30:01;;;;;;;11.97;3.40;;;18.70;99.50;;;;;;4156510;28;20214;-75
2023/07/03 08:32:06;;;;;;;12.33;3.33;;;18.80;98.20;;;;;;4152939;28;20217;-75
2023/07/03 08:34:09;;;;;;;16.10;3.50;;;18.80;99.40;;;;;;4155849;28;20212;-75
2023/07/03 08:36:11;;;;;;;12.83;2.97;;;18.90;99.90;;;;;;4156472;28;20271;-76
2023/07/03 08:38:13;;;;;;;16.47;3.80;;;19.00;97.20;;;;;;4154680;28;20258;-75
2023/07/03 08:40:19;;;;;;;16.87;3.30;;;19.00;91.90;;;;;;4156836;28;20210;-77
2023/07/03 08:42:24;;;;;;;9.67;2.90;;;19.00;93.90;;;;;;4153900;28;20944;-75
2023/07/03 08:44:26;;;;;;;11.43;3.20;;;19.00;91.70;;;;;;4156123;28;20215;-76
2023/07/03 08:46:32;;;;;;;9.23;3.00;;;19.00;87.20;;;;;;4155064;28;20237;-75
2023/07/03 08:48:36;;;;;;;10.93;2.93;;;19.10;91.10;;;;;;4156640;28;20659;-76
2023/07/03 08:50:42;;;;;;;10.20;2.90;;;19.20;79.50;;;;;;4154712;28;20217;-75
2023/07/03 08:52:49;;;;;;;16.20;3.53;;;19.30;83.70;;;;;;4156964;28;20297;-76
2023/07/03 08:54:52;;;;;;;8.53;3.00;;;19.40;84.70;;;;;;4155663;28;20242;-76
2023/07/03 08:56:57;;;;;;;12.07;3.40;;;19.50;79.50;;;;;;4157210;28;20229;-76
2023/07/03 08:59:02;;;;;;;8.57;3.20;;;19.50;80.00;;;;;;4153154;28;20309;-76
2023/07/03 09:01:10;;;;;;;10.00;3.03;;;19.60;80.60;;;;;;4156734;28;20219;-76
2023/07/03 09:03:22;;;;;;;9.30;2.60;;;19.60;78.20;;;;;;4150706;28;20237;-75
2023/07/03 09:05:36;;;;;;;11.17;3.23;;;19.60;73.40;;;;;;4151930;28;20274;-75
2023/07/03 09:07:41;;;;;;;11.33;3.37;;;19.60;65.70;;;;;;4153982;28;20362;-75
2023/07/03 09:09:49;;;;;;;8.07;2.80;;;19.60;65.40;;;;;;4152652;28;20309;-75
2023/07/03 09:12:02;;;;;;;9.70;2.60;;;19.70;64.20;;;;;;4155353;28;20216;-76
2023/07/03 09:14:05;;;;;;;8.93;2.80;;;19.70;58.10;;;;;;4150362;28;20208;-76
2023/07/03 09:16:12;;;;;;;10.60;2.37;;;19.70;58.20;;;;;;4156525;28;20330;-76
2023/07/03 09:18:20;;;;;;;10.33;2.97;;;19.70;61.40;;;;;;4153854;28;20214;-76
2023/07/03 09:20:25;;;;;;;6.77;2.37;;;19.80;57.20;;;;;;4156368;28;21713;-76
2023/07/03 09:22:37;;;;;;;10.57;2.83;;;20.00;57.10;;;;;;4158326;28;20220;-76
2023/07/03 09:24:43;;;;;;;8.63;2.40;;;20.10;55.10;;;;;;4156045;28;20302;-76
2023/07/03 09:26:51;;;;;;;7.30;2.70;;;20.20;51.80;;;;;;4159142;28;20229;-76
2023/07/03 09:28:57;;;;;;;7.37;2.40;;;20.20;51.10;;;;;;4157312;28;20596;-76
2023/07/03 09:30:59;;;;;;;9.23;2.30;;;20.30;50.80;;;;;;4157910;28;20306;-76
2023/07/03 09:33:01;;;;;;;13.70;2.87;;;20.30;51.00;;;;;;4157155;28;20199;-76
2023/07/03 09:35:07;;;;;;;7.20;2.20;;;20.30;49.60;;;;;;4156910;28;20211;-75
2023/07/03 09:37:11;;;;;;;8.70;2.60;;;20.40;49.10;;;;;;4159773;28;20241;-74
2023/07/03 09:39:15;;;;;;;10.30;2.50;;;20.30;48.30;;;;;;4160826;28;20217;-75
2023/07/03 09:41:26;;;;;;;11.77;3.03;;;20.30;48.40;;;;;;4159811;28;20233;-74
2023/07/03 09:43:30;;;;;;;7.17;2.60;;;20.30;48.20;;;;;;4159764;28;20567;-75
2023/07/03 09:45:34;;;;;;;10.47;2.53;;;20.30;48.20;;;;;;4155844;28;20200;-74
2023/07/03 09:47:36;;;;;;;8.53;2.53;;;20.40;47.90;;;;;;4160021;28;20219;-75
2023/07/03 09:49:38;;;;;;;8.63;2.40;;;20.50;48.20;;;;;;4163673;28;20204;-76
2023/07/03 09:51:41;;;;;;;9.30;2.60;;;20.50;47.80;;;;;;4157610;28;20306;-75
2023/07/03 09:53:43;;;;;;;9.63;4.20;;;20.50;47.30;;;;;;4161466;28;20221;-74
2023/07/03 09:55:45;;;;;;;9.53;2.70;;;20.50;48.20;;;;;;4154593;28;20731;-74
2023/07/03 09:57:48;;;;;;;9.27;2.07;;;20.60;47.80;;;;;;4159228;28;20736;-74
2023/07/03 09:59:49;;;;;;;6.47;2.10;;;20.70;47.10;;;;;;4164657;28;20215;-74
2023/07/03 10:01:58;;;;;;;9.30;2.60;;;20.70;47.80;;;;;;4163929;28;20299;-75
2023/07/03 10:04:06;;;;;;;7.27;2.33;;;20.80;47.60;;;;;;4161722;28;20218;-75
2023/07/03 10:06:14;;;;;;;5.50;2.30;;;20.80;47.00;;;;;;4160007;28;20226;-74
2023/07/03 10:08:21;;;;;;;7.47;2.20;;;20.90;46.90;;;;;;4158937;28;20227;-73
2023/07/03 10:10:27;;;;;;;8.67;2.40;;;20.90;47.20;;;;;;4163477;28;20240;-74
2023/07/03 10:12:35;;;;;;;6.63;2.23;;;21.00;47.80;;;;;;4168658;28;20212;-74
2023/07/03 10:14:44;;;;;;;7.57;2.53;;;21.00;47.00;;;;;;4157816;28;20233;-74
2023/07/03 10:16:50;;;;;;;6.63;2.30;;;21.10;47.90;;;;;;4160315;28;20231;-75
2023/07/03 10:18:55;;;;;;;7.63;2.23;;;21.30;47.00;;;;;;4158506;28;20596;-74
2023/07/03 10:20:57;;;;;;;12.77;3.90;;;21.40;46.20;;;;;;4157753;28;22025;-74
2023/07/03 10:23:02;;;;;;;7.60;2.80;;;21.60;46.20;;;;;;4161256;28;20302;-74
2023/07/03 10:25:10;;;;;;;6.37;2.50;;;21.60;46.10;;;;;;4157040;28;20207;-74
2023/07/03 10:27:14;;;;;;;9.57;2.77;;;21.60;44.70;;;;;;4157031;28;20235;-74
2023/07/03 10:29:22;;;;;;;7.43;2.33;;;21.60;44.70;;;;;;4162133;28;20243;-74
2023/07/03 10:31:30;;;;;;;9.10;2.43;;;21.70;44.50;;;;;;4151342;28;20654;-74
2023/07/03 10:33:37;;;;;;;6.93;2.17;;;21.80;43.60;;;;;;4155784;28;20211;-74